sensor_id;sensor_type;location;lat;lon;timestamp;P1;durP1;ratioP1;P2;durP2;ratioP2
31224;SDS011;17847;31.524;74.366;2023-03-05T00:02:10;163.83;;;95.30;;
31224;SDS011;17847;31.524;74.366;2023-03-05T00:04:47;171.65;;;94.93;;
31224;SDS011;17847;31.524;74.366;2023-03-05T00:07:42;159.90;;;91.93;;
31224;SDS011;17847;31.524;74.366;2023-03-05T00:10:18;160.65;;;89.07;;
31224;SDS011;17847;31.524;74.366;2023-03-05T00:13:13;151.30;;;86.18;;
31224;SDS011;17847;31.524;74.366;2023-03-05T00:15:56;154.43;;;85.30;;
31224;SDS011;17847;31.524;74.366;2023-03-05T00:18:44;149.48;;;86.30;;
31224;SDS011;17847;31.524;74.366;2023-03-05T00:21:34;155.52;;;86.43;;
31224;SDS011;17847;31.524;74.366;2023-03-05T00:24:25;150.23;;;85.82;;
31224;SDS011;17847;31.524;74.366;2023-03-05T00:27:08;142.98;;;85.90;;
31224;SDS011;17847;31.524;74.366;2023-03-05T00:29:56;160.00;;;89.43;;
31224;SDS011;17847;31.524;74.366;2023-03-05T00:32:39;142.82;;;85.35;;
31224;SDS011;17847;31.524;74.366;2023-03-05T00:35:27;153.93;;;88.00;;
31224;SDS011;17847;31.524;74.366;2023-03-05T00:38:10;155.25;;;86.68;;
31224;SDS011;17847;31.524;74.366;2023-03-05T00:41:00;146.10;;;86.65;;
31224;SDS011;17847;31.524;74.366;2023-03-05T00:43:43;146.27;;;85.70;;
31224;SDS011;17847;31.524;74.366;2023-03-05T00:46:32;154.05;;;87.55;;
31224;SDS011;17847;31.524;74.366;2023-03-05T00:49:15;147.95;;;87.03;;
31224;SDS011;17847;31.524;74.366;2023-03-05T00:52:03;152.07;;;89.80;;
31224;SDS011;17847;31.524;74.366;2023-03-05T00:54:46;156.68;;;89.45;;
31224;SDS011;17847;31.524;74.366;2023-03-05T00:57:34;159.05;;;89.45;;
31224;SDS011;17847;31.524;74.366;2023-03-05T01:00:17;149.73;;;87.68;;
31224;SDS011;17847;31.524;74.366;2023-03-05T01:03:05;148.80;;;85.05;;
31224;SDS011;17847;31.524;74.366;2023-03-05T01:05:55;151.43;;;89.25;;
31224;SDS011;17847;31.524;74.366;2023-03-05T01:08:38;152.02;;;88.35;;
31224;SDS011;17847;31.524;74.366;2023-03-05T01:11:28;156.38;;;89.70;;
31224;SDS011;17847;31.524;74.366;2023-03-05T01:14:05;155.98;;;90.07;;
31224;SDS011;17847;31.524;74.366;2023-03-05T01:17:00;155.05;;;89.68;;
31224;SDS011;17847;31.524;74.366;2023-03-05T01:19:43;158.32;;;91.50;;
31224;SDS011;17847;31.524;74.366;2023-03-05T01:22:31;151.38;;;89.82;;
31224;SDS011;17847;31.524;74.366;2023-03-05T01:25:14;172.30;;;92.22;;
31224;SDS011;17847;31.524;74.366;2023-03-05T01:28:04;154.35;;;90.32;;
31224;SDS011;17847;31.524;74.366;2023-03-05T01:30:48;155.18;;;89.40;;
31224;SDS011;17847;31.524;74.366;2023-03-05T01:33:36;153.18;;;90.15;;
31224;SDS011;17847;31.524;74.366;2023-03-05T01:36:20;145.38;;;89.60;;
31224;SDS011;17847;31.524;74.366;2023-03-05T01:39:10;166.15;;;90.63;;
31224;SDS011;17847;31.524;74.366;2023-03-05T01:41:53;162.40;;;92.32;;
31224;SDS011;17847;31.524;74.366;2023-03-05T01:45:04;154.40;;;90.57;;
31224;SDS011;17847;31.524;74.366;2023-03-05T01:47:51;153.63;;;90.43;;
31224;SDS011;17847;31.524;74.366;2023-03-05T01:50:39;161.43;;;92.63;;
31224;SDS011;17847;31.524;74.366;2023-03-05T01:53:22;157.10;;;91.60;;
31224;SDS011;17847;31.524;74.366;2023-03-05T01:56:10;153.55;;;91.45;;
31224;SDS011;17847;31.524;74.366;2023-03-05T01:59:09;161.63;;;94.32;;
31224;SDS011;17847;31.524;74.366;2023-03-05T02:02:05;155.13;;;91.13;;
31224;SDS011;17847;31.524;74.366;2023-03-05T02:04:56;150.45;;;91.35;;
31224;SDS011;17847;31.524;74.366;2023-03-05T02:07:43;156.75;;;92.68;;
31224;SDS011;17847;31.524;74.366;2023-03-05T02:10:36;167.83;;;93.47;;
31224;SDS011;17847;31.524;74.366;2023-03-05T02:13:25;147.70;;;91.95;;
31224;SDS011;17847;31.524;74.366;2023-03-05T02:16:24;164.70;;;93.15;;
31224;SDS011;17847;31.524;74.366;2023-03-05T02:19:10;162.63;;;95.00;;
31224;SDS011;17847;31.524;74.366;2023-03-05T02:21:59;165.00;;;93.82;;
31224;SDS011;17847;31.524;74.366;2023-03-05T02:24:41;162.80;;;94.93;;
31224;SDS011;17847;31.524;74.366;2023-03-05T02:27:30;157.73;;;95.32;;
31224;SDS011;17847;31.524;74.366;2023-03-05T02:30:11;165.77;;;95.78;;
31224;SDS011;17847;31.524;74.366;2023-03-05T02:33:07;173.25;;;97.65;;
31224;SDS011;17847;31.524;74.366;2023-03-05T02:35:43;169.25;;;96.97;;
31224;SDS011;17847;31.524;74.366;2023-03-05T02:38:40;161.88;;;97.68;;
31224;SDS011;17847;31.524;74.366;2023-03-05T02:41:23;168.57;;;99.57;;
31224;SDS011;17847;31.524;74.366;2023-03-05T02:44:16;174.27;;;97.53;;
31224;SDS011;17847;31.524;74.366;2023-03-05T02:46:52;167.15;;;98.75;;
31224;SDS011;17847;31.524;74.366;2023-03-05T02:49:48;174.52;;;103.18;;
31224;SDS011;17847;31.524;74.366;2023-03-05T02:52:24;174.98;;;101.28;;
31224;SDS011;17847;31.524;74.366;2023-03-05T02:55:22;170.45;;;98.63;;
31224;SDS011;17847;31.524;74.366;2023-03-05T02:58:00;157.50;;;93.32;;
31224;SDS011;17847;31.524;74.366;2023-03-05T03:00:56;157.70;;;92.25;;
31224;SDS011;17847;31.524;74.366;2023-03-05T03:03:38;157.27;;;88.25;;
31224;SDS011;17847;31.524;74.366;2023-03-05T03:06:27;153.88;;;85.03;;
31224;SDS011;17847;31.524;74.366;2023-03-05T03:09:09;143.13;;;83.35;;
31224;SDS011;17847;31.524;74.366;2023-03-05T03:11:58;143.60;;;81.45;;
31224;SDS011;17847;31.524;74.366;2023-03-05T03:14:36;145.15;;;85.13;;
31224;SDS011;17847;31.524;74.366;2023-03-05T03:17:33;145.60;;;83.53;;
31224;SDS011;17847;31.524;74.366;2023-03-05T03:20:11;151.63;;;84.40;;
31224;SDS011;17847;31.524;74.366;2023-03-05T03:23:07;146.85;;;89.20;;
31224;SDS011;17847;31.524;74.366;2023-03-05T03:25:50;165.23;;;92.80;;
31224;SDS011;17847;31.524;74.366;2023-03-05T03:28:38;158.55;;;89.70;;
31224;SDS011;17847;31.524;74.366;2023-03-05T03:31:21;159.55;;;92.28;;
31224;SDS011;17847;31.524;74.366;2023-03-05T03:34:09;168.38;;;98.82;;
31224;SDS011;17847;31.524;74.366;2023-03-05T03:36:56;167.40;;;102.95;;
31224;SDS011;17847;31.524;74.366;2023-03-05T03:39:44;165.35;;;99.22;;
31224;SDS011;17847;31.524;74.366;2023-03-05T03:42:27;163.48;;;99.65;;
31224;SDS011;17847;31.524;74.366;2023-03-05T03:45:15;158.85;;;95.78;;
31224;SDS011;17847;31.524;74.366;2023-03-05T03:47:58;152.85;;;93.65;;
31224;SDS011;17847;31.524;74.366;2023-03-05T03:50:53;156.65;;;92.60;;
31224;SDS011;17847;31.524;74.366;2023-03-05T03:53:36;158.57;;;93.75;;
31224;SDS011;17847;31.524;74.366;2023-03-05T03:56:31;138.23;;;86.60;;
31224;SDS011;17847;31.524;74.366;2023-03-05T03:59:07;150.07;;;87.57;;
31224;SDS011;17847;31.524;74.366;2023-03-05T04:02:02;123.78;;;80.53;;
31224;SDS011;17847;31.524;74.366;2023-03-05T04:04:38;122.88;;;78.63;;
31224;SDS011;17847;31.524;74.366;2023-03-05T04:07:33;133.18;;;84.32;;
31224;SDS011;17847;31.524;74.366;2023-03-05T04:10:09;133.18;;;82.68;;
31224;SDS011;17847;31.524;74.366;2023-03-05T04:13:05;125.95;;;86.85;;
31224;SDS011;17847;31.524;74.366;2023-03-05T04:15:41;135.82;;;88.93;;
31224;SDS011;17847;31.524;74.366;2023-03-05T04:18:37;137.32;;;89.80;;
31224;SDS011;17847;31.524;74.366;2023-03-05T04:21:13;123.20;;;80.93;;
31224;SDS011;17847;31.524;74.366;2023-03-05T04:24:08;100.38;;;64.55;;
31224;SDS011;17847;31.524;74.366;2023-03-05T04:26:44;90.07;;;57.85;;
31224;SDS011;17847;31.524;74.366;2023-03-05T04:29:39;80.88;;;55.65;;
31224;SDS011;17847;31.524;74.366;2023-03-05T04:32:22;86.10;;;55.55;;
31224;SDS011;17847;31.524;74.366;2023-03-05T04:35:10;79.07;;;53.58;;
31224;SDS011;17847;31.524;74.366;2023-03-05T04:37:53;85.72;;;56.85;;
31224;SDS011;17847;31.524;74.366;2023-03-05T04:40:41;80.65;;;54.92;;
31224;SDS011;17847;31.524;74.366;2023-03-05T04:43:25;85.55;;;54.30;;
31224;SDS011;17847;31.524;74.366;2023-03-05T04:46:20;84.25;;;52.47;;
31224;SDS011;17847;31.524;74.366;2023-03-05T04:49:02;76.97;;;47.60;;
31224;SDS011;17847;31.524;74.366;2023-03-05T04:51:51;72.65;;;46.78;;
31224;SDS011;17847;31.524;74.366;2023-03-05T04:54:33;78.70;;;52.40;;
31224;SDS011;17847;31.524;74.366;2023-03-05T04:57:22;89.68;;;54.70;;
31224;SDS011;17847;31.524;74.366;2023-03-05T05:00:05;84.80;;;52.08;;
31224;SDS011;17847;31.524;74.366;2023-03-05T05:03:05;80.88;;;52.15;;
31224;SDS011;17847;31.524;74.366;2023-03-05T05:05:52;72.65;;;49.50;;
31224;SDS011;17847;31.524;74.366;2023-03-05T05:08:49;70.30;;;44.78;;
31224;SDS011;17847;31.524;74.366;2023-03-05T05:11:32;81.53;;;50.72;;
31224;SDS011;17847;31.524;74.366;2023-03-05T05:14:20;80.63;;;47.75;;
31224;SDS011;17847;31.524;74.366;2023-03-05T05:17:03;64.25;;;36.75;;
31224;SDS011;17847;31.524;74.366;2023-03-05T05:19:51;45.17;;;30.90;;
31224;SDS011;17847;31.524;74.366;2023-03-05T05:22:35;53.97;;;33.97;;
31224;SDS011;17847;31.524;74.366;2023-03-05T05:25:24;52.85;;;32.60;;
31224;SDS011;17847;31.524;74.366;2023-03-05T05:28:07;58.25;;;33.60;;
31224;SDS011;17847;31.524;74.366;2023-03-05T05:30:57;47.78;;;29.92;;
31224;SDS011;17847;31.524;74.366;2023-03-05T05:33:40;59.92;;;35.13;;
31224;SDS011;17847;31.524;74.366;2023-03-05T05:36:29;61.63;;;36.45;;
31224;SDS011;17847;31.524;74.366;2023-03-05T05:39:12;45.35;;;26.00;;
31224;SDS011;17847;31.524;74.366;2023-03-05T05:42:00;39.85;;;23.35;;
31224;SDS011;17847;31.524;74.366;2023-03-05T05:44:44;45.92;;;25.30;;
31224;SDS011;17847;31.524;74.366;2023-03-05T05:47:33;47.13;;;28.70;;
31224;SDS011;17847;31.524;74.366;2023-03-05T05:50:17;33.88;;;21.45;;
31224;SDS011;17847;31.524;74.366;2023-03-05T05:53:14;39.70;;;23.77;;
31224;SDS011;17847;31.524;74.366;2023-03-05T05:55:56;44.67;;;28.33;;
31224;SDS011;17847;31.524;74.366;2023-03-05T06:01:29;39.90;;;22.95;;
31224;SDS011;17847;31.524;74.366;2023-03-05T06:04:19;41.22;;;20.95;;
31224;SDS011;17847;31.524;74.366;2023-03-05T06:07:02;40.78;;;25.52;;
31224;SDS011;17847;31.524;74.366;2023-03-05T06:10:02;41.78;;;25.80;;
31224;SDS011;17847;31.524;74.366;2023-03-05T06:12:44;40.05;;;21.95;;
31224;SDS011;17847;31.524;74.366;2023-03-05T06:15:33;33.72;;;20.50;;
31224;SDS011;17847;31.524;74.366;2023-03-05T06:18:16;34.88;;;17.50;;
31224;SDS011;17847;31.524;74.366;2023-03-05T06:21:06;40.17;;;21.55;;
31224;SDS011;17847;31.524;74.366;2023-03-05T06:23:45;26.20;;;13.70;;
31224;SDS011;17847;31.524;74.366;2023-03-05T06:26:41;27.50;;;11.45;;
31224;SDS011;17847;31.524;74.366;2023-03-05T06:29:17;37.42;;;17.40;;
31224;SDS011;17847;31.524;74.366;2023-03-05T06:32:14;34.65;;;16.52;;
31224;SDS011;17847;31.524;74.366;2023-03-05T06:34:56;35.85;;;18.80;;
31224;SDS011;17847;31.524;74.366;2023-03-05T06:37:45;35.47;;;18.70;;
31224;SDS011;17847;31.524;74.366;2023-03-05T06:40:28;42.05;;;21.75;;
31224;SDS011;17847;31.524;74.366;2023-03-05T06:43:18;26.38;;;14.25;;
31224;SDS011;17847;31.524;74.366;2023-03-05T06:46:01;24.90;;;13.55;;
31224;SDS011;17847;31.524;74.366;2023-03-05T06:48:51;24.77;;;12.77;;
31224;SDS011;17847;31.524;74.366;2023-03-05T06:51:37;23.98;;;12.60;;
31224;SDS011;17847;31.524;74.366;2023-03-05T06:54:27;18.13;;;10.50;;
31224;SDS011;17847;31.524;74.366;2023-03-05T06:57:03;17.98;;;10.02;;
31224;SDS011;17847;31.524;74.366;2023-03-05T06:59:58;19.60;;;10.50;;
31224;SDS011;17847;31.524;74.366;2023-03-05T07:02:44;17.42;;;10.20;;
31224;SDS011;17847;31.524;74.366;2023-03-05T07:05:32;13.68;;;9.80;;
31224;SDS011;17847;31.524;74.366;2023-03-05T07:08:14;18.05;;;10.10;;
31224;SDS011;17847;31.524;74.366;2023-03-05T07:11:08;15.25;;;8.73;;
31224;SDS011;17847;31.524;74.366;2023-03-05T07:13:51;13.75;;;8.25;;
31224;SDS011;17847;31.524;74.366;2023-03-05T07:19:22;18.52;;;12.10;;
31224;SDS011;17847;31.524;74.366;2023-03-05T07:22:10;15.40;;;8.60;;
31224;SDS011;17847;31.524;74.366;2023-03-05T07:24:46;17.15;;;8.00;;
31224;SDS011;17847;31.524;74.366;2023-03-05T07:27:41;16.42;;;10.35;;
31224;SDS011;17847;31.524;74.366;2023-03-05T07:30:24;16.70;;;10.55;;
31224;SDS011;17847;31.524;74.366;2023-03-05T07:33:13;19.38;;;11.82;;
31224;SDS011;17847;31.524;74.366;2023-03-05T07:35:56;19.65;;;9.57;;
31224;SDS011;17847;31.524;74.366;2023-03-05T07:38:44;15.20;;;11.13;;
31224;SDS011;17847;31.524;74.366;2023-03-05T07:41:27;13.40;;;8.75;;
31224;SDS011;17847;31.524;74.366;2023-03-05T07:44:15;12.57;;;10.00;;
31224;SDS011;17847;31.524;74.366;2023-03-05T07:46:59;14.80;;;9.43;;
31224;SDS011;17847;31.524;74.366;2023-03-05T07:49:47;16.80;;;10.02;;
31224;SDS011;17847;31.524;74.366;2023-03-05T07:52:30;24.65;;;9.77;;
31224;SDS011;17847;31.524;74.366;2023-03-05T07:55:18;14.10;;;9.27;;
31224;SDS011;17847;31.524;74.366;2023-03-05T07:58:01;15.82;;;8.82;;
31224;SDS011;17847;31.524;74.366;2023-03-05T08:00:49;13.40;;;7.70;;
31224;SDS011;17847;31.524;74.366;2023-03-05T08:03:32;11.18;;;8.80;;
31224;SDS011;17847;31.524;74.366;2023-03-05T08:06:20;14.43;;;7.93;;
31224;SDS011;17847;31.524;74.366;2023-03-05T08:09:03;11.30;;;8.05;;
31224;SDS011;17847;31.524;74.366;2023-03-05T08:11:51;21.05;;;8.90;;
31224;SDS011;17847;31.524;74.366;2023-03-05T08:14:34;17.83;;;8.73;;
31224;SDS011;17847;31.524;74.366;2023-03-05T08:17:22;24.45;;;8.32;;
31224;SDS011;17847;31.524;74.366;2023-03-05T08:20:05;12.93;;;7.80;;
31224;SDS011;17847;31.524;74.366;2023-03-05T08:22:54;22.25;;;9.82;;
31224;SDS011;17847;31.524;74.366;2023-03-05T08:25:37;15.77;;;9.30;;
31224;SDS011;17847;31.524;74.366;2023-03-05T08:28:25;16.20;;;8.55;;
31224;SDS011;17847;31.524;74.366;2023-03-05T08:31:08;19.55;;;8.52;;
31224;SDS011;17847;31.524;74.366;2023-03-05T08:34:05;14.45;;;9.85;;
31224;SDS011;17847;31.524;74.366;2023-03-05T08:36:48;20.13;;;11.27;;
31224;SDS011;17847;31.524;74.366;2023-03-05T08:39:37;20.42;;;10.90;;
31224;SDS011;17847;31.524;74.366;2023-03-05T08:42:19;12.68;;;8.48;;
31224;SDS011;17847;31.524;74.366;2023-03-05T08:45:08;15.00;;;8.77;;
31224;SDS011;17847;31.524;74.366;2023-03-05T08:47:51;18.02;;;9.73;;
31224;SDS011;17847;31.524;74.366;2023-03-05T08:50:40;17.33;;;10.25;;
31224;SDS011;17847;31.524;74.366;2023-03-05T08:53:23;14.77;;;9.95;;
31224;SDS011;17847;31.524;74.366;2023-03-05T08:56:12;17.13;;;10.80;;
31224;SDS011;17847;31.524;74.366;2023-03-05T09:01:44;20.08;;;11.55;;
31224;SDS011;17847;31.524;74.366;2023-03-05T09:04:20;23.33;;;11.00;;
31224;SDS011;17847;31.524;74.366;2023-03-05T09:07:15;19.40;;;11.05;;
31224;SDS011;17847;31.524;74.366;2023-03-05T09:09:58;18.00;;;11.70;;
31224;SDS011;17847;31.524;74.366;2023-03-05T09:12:46;26.80;;;11.15;;
31224;SDS011;17847;31.524;74.366;2023-03-05T09:15:29;14.85;;;10.15;;
31224;SDS011;17847;31.524;74.366;2023-03-05T09:18:18;18.05;;;10.65;;
31224;SDS011;17847;31.524;74.366;2023-03-05T09:21:03;20.50;;;11.38;;
31224;SDS011;17847;31.524;74.366;2023-03-05T09:23:55;18.05;;;10.98;;
31224;SDS011;17847;31.524;74.366;2023-03-05T09:26:38;20.73;;;11.27;;
31224;SDS011;17847;31.524;74.366;2023-03-05T09:29:28;19.13;;;11.05;;
31224;SDS011;17847;31.524;74.366;2023-03-05T09:32:14;24.83;;;10.45;;
31224;SDS011;17847;31.524;74.366;2023-03-05T09:35:03;22.15;;;10.90;;
31224;SDS011;17847;31.524;74.366;2023-03-05T09:37:46;17.30;;;10.00;;
31224;SDS011;17847;31.524;74.366;2023-03-05T09:40:47;17.23;;;9.75;;
31224;SDS011;17847;31.524;74.366;2023-03-05T09:50:29;17.70;;;9.63;;
31224;SDS011;17847;31.524;74.366;2023-03-05T09:53:34;14.93;;;9.40;;
31224;SDS011;17847;31.524;74.366;2023-03-05T09:56:31;14.55;;;8.32;;
31224;SDS011;17847;31.524;74.366;2023-03-05T10:02:31;16.92;;;8.57;;
31224;SDS011;17847;31.524;74.366;2023-03-05T10:11:56;14.77;;;8.10;;
31224;SDS011;17847;31.524;74.366;2023-03-05T10:14:44;15.73;;;8.15;;
31224;SDS011;17847;31.524;74.366;2023-03-05T10:23:29;18.00;;;8.63;;
31224;SDS011;17847;31.524;74.366;2023-03-05T10:26:43;11.10;;;7.03;;
31224;SDS011;17847;31.524;74.366;2023-03-05T10:30:03;12.55;;;7.25;;
31224;SDS011;17847;31.524;74.366;2023-03-05T10:45:51;11.88;;;6.55;;
31224;SDS011;17847;31.524;74.366;2023-03-05T10:48:39;13.88;;;6.43;;
31224;SDS011;17847;31.524;74.366;2023-03-05T10:54:23;12.95;;;5.60;;
31224;SDS011;17847;31.524;74.366;2023-03-05T10:57:25;7.88;;;6.43;;
31224;SDS011;17847;31.524;74.366;2023-03-05T11:03:15;13.23;;;7.45;;
31224;SDS011;17847;31.524;74.366;2023-03-05T11:06:04;14.73;;;6.70;;
31224;SDS011;17847;31.524;74.366;2023-03-05T11:08:47;10.20;;;6.30;;
31224;SDS011;17847;31.524;74.366;2023-03-05T11:11:36;15.05;;;6.43;;
31224;SDS011;17847;31.524;74.366;2023-03-05T11:14:23;19.17;;;6.70;;
31224;SDS011;17847;31.524;74.366;2023-03-05T11:20:33;10.30;;;6.22;;
31224;SDS011;17847;31.524;74.366;2023-03-05T11:23:23;7.65;;;5.97;;
31224;SDS011;17847;31.524;74.366;2023-03-05T11:29:01;11.10;;;6.50;;
31224;SDS011;17847;31.524;74.366;2023-03-05T11:31:45;12.55;;;7.07;;
31224;SDS011;17847;31.524;74.366;2023-03-05T11:34:33;13.00;;;6.47;;
31224;SDS011;17847;31.524;74.366;2023-03-05T11:37:29;12.43;;;6.22;;
31224;SDS011;17847;31.524;74.366;2023-03-05T11:40:28;12.18;;;5.68;;
31224;SDS011;17847;31.524;74.366;2023-03-05T11:43:20;12.52;;;5.40;;
31224;SDS011;17847;31.524;74.366;2023-03-05T11:46:10;9.40;;;5.32;;
31224;SDS011;17847;31.524;74.366;2023-03-05T11:48:54;9.88;;;5.63;;
31224;SDS011;17847;31.524;74.366;2023-03-05T11:52:00;12.70;;;5.93;;
31224;SDS011;17847;31.524;74.366;2023-03-05T11:57:49;16.27;;;5.47;;
31224;SDS011;17847;31.524;74.366;2023-03-05T12:00:43;8.82;;;4.97;;
31224;SDS011;17847;31.524;74.366;2023-03-05T12:03:34;15.43;;;5.32;;
31224;SDS011;17847;31.524;74.366;2023-03-05T12:06:15;11.00;;;4.60;;
31224;SDS011;17847;31.524;74.366;2023-03-05T12:09:15;10.80;;;5.03;;
31224;SDS011;17847;31.524;74.366;2023-03-05T12:18:32;10.82;;;5.53;;
31224;SDS011;17847;31.524;74.366;2023-03-05T12:21:38;11.25;;;5.53;;
31224;SDS011;17847;31.524;74.366;2023-03-05T12:27:14;8.48;;;5.05;;
31224;SDS011;17847;31.524;74.366;2023-03-05T12:33:36;14.50;;;6.15;;
31224;SDS011;17847;31.524;74.366;2023-03-05T12:39:40;14.60;;;4.97;;
31224;SDS011;17847;31.524;74.366;2023-03-05T12:45:21;9.82;;;4.20;;
31224;SDS011;17847;31.524;74.366;2023-03-05T12:51:01;8.80;;;4.65;;
31224;SDS011;17847;31.524;74.366;2023-03-05T12:53:44;13.27;;;5.40;;
31224;SDS011;17847;31.524;74.366;2023-03-05T12:56:38;13.20;;;6.47;;
31224;SDS011;17847;31.524;74.366;2023-03-05T12:59:46;12.10;;;5.32;;
31224;SDS011;17847;31.524;74.366;2023-03-05T13:03:01;10.38;;;5.80;;
31224;SDS011;17847;31.524;74.366;2023-03-05T13:05:49;11.45;;;5.90;;
31224;SDS011;17847;31.524;74.366;2023-03-05T13:08:54;9.75;;;5.35;;
31224;SDS011;17847;31.524;74.366;2023-03-05T13:11:41;13.85;;;6.00;;
31224;SDS011;17847;31.524;74.366;2023-03-05T13:20:28;9.88;;;4.90;;
31224;SDS011;17847;31.524;74.366;2023-03-05T13:26:11;12.68;;;4.97;;
31224;SDS011;17847;31.524;74.366;2023-03-05T13:32:09;12.25;;;5.85;;
31224;SDS011;17847;31.524;74.366;2023-03-05T13:35:10;12.43;;;5.65;;
31224;SDS011;17847;31.524;74.366;2023-03-05T13:38:13;13.00;;;5.53;;
31224;SDS011;17847;31.524;74.366;2023-03-05T13:44:16;14.68;;;6.13;;
31224;SDS011;17847;31.524;74.366;2023-03-05T13:50:24;11.48;;;6.22;;
31224;SDS011;17847;31.524;74.366;2023-03-05T13:56:15;13.80;;;6.43;;
31224;SDS011;17847;31.524;74.366;2023-03-05T13:59:00;18.50;;;9.40;;
31224;SDS011;17847;31.524;74.366;2023-03-05T14:01:48;24.17;;;9.38;;
31224;SDS011;17847;31.524;74.366;2023-03-05T14:04:34;25.40;;;10.40;;
31224;SDS011;17847;31.524;74.366;2023-03-05T14:07:37;23.10;;;11.65;;
31224;SDS011;17847;31.524;74.366;2023-03-05T14:10:36;22.05;;;10.27;;
31224;SDS011;17847;31.524;74.366;2023-03-05T14:13:27;25.27;;;9.48;;
31224;SDS011;17847;31.524;74.366;2023-03-05T14:16:23;27.23;;;9.77;;
31224;SDS011;17847;31.524;74.366;2023-03-05T14:19:23;27.20;;;10.40;;
31224;SDS011;17847;31.524;74.366;2023-03-05T14:22:29;25.67;;;11.27;;
31224;SDS011;17847;31.524;74.366;2023-03-05T14:25:29;26.45;;;10.85;;
31224;SDS011;17847;31.524;74.366;2023-03-05T14:28:31;21.73;;;10.35;;
31224;SDS011;17847;31.524;74.366;2023-03-05T14:31:15;28.90;;;10.88;;
31224;SDS011;17847;31.524;74.366;2023-03-05T14:34:05;26.48;;;10.15;;
31224;SDS011;17847;31.524;74.366;2023-03-05T14:36:48;17.67;;;10.43;;
31224;SDS011;17847;31.524;74.366;2023-03-05T14:45:39;21.88;;;9.60;;
31224;SDS011;17847;31.524;74.366;2023-03-05T14:48:30;22.80;;;9.07;;
31224;SDS011;17847;31.524;74.366;2023-03-05T14:51:12;20.02;;;8.82;;
31224;SDS011;17847;31.524;74.366;2023-03-05T14:54:01;19.70;;;8.88;;
31224;SDS011;17847;31.524;74.366;2023-03-05T14:56:37;28.42;;;9.88;;
31224;SDS011;17847;31.524;74.366;2023-03-05T14:59:32;20.23;;;8.50;;
31224;SDS011;17847;31.524;74.366;2023-03-05T15:02:13;22.52;;;8.93;;
31224;SDS011;17847;31.524;74.366;2023-03-05T15:05:09;25.10;;;10.00;;
31224;SDS011;17847;31.524;74.366;2023-03-05T15:07:45;22.98;;;9.40;;
31224;SDS011;17847;31.524;74.366;2023-03-05T15:10:41;25.23;;;10.00;;
31224;SDS011;17847;31.524;74.366;2023-03-05T15:13:23;26.75;;;11.00;;
31224;SDS011;17847;31.524;74.366;2023-03-05T15:16:13;24.63;;;9.93;;
31224;SDS011;17847;31.524;74.366;2023-03-05T15:18:51;22.42;;;11.02;;
31224;SDS011;17847;31.524;74.366;2023-03-05T15:21:46;33.53;;;11.25;;
31224;SDS011;17847;31.524;74.366;2023-03-05T15:24:22;31.50;;;11.88;;
31224;SDS011;17847;31.524;74.366;2023-03-05T15:27:17;22.55;;;11.80;;
31224;SDS011;17847;31.524;74.366;2023-03-05T15:30:00;37.58;;;11.68;;
31224;SDS011;17847;31.524;74.366;2023-03-05T15:32:49;27.30;;;11.75;;
31224;SDS011;17847;31.524;74.366;2023-03-05T15:35:33;27.40;;;11.38;;
31224;SDS011;17847;31.524;74.366;2023-03-05T15:38:22;22.27;;;12.52;;
31224;SDS011;17847;31.524;74.366;2023-03-05T15:41:05;29.92;;;12.27;;
31224;SDS011;17847;31.524;74.366;2023-03-05T15:43:54;29.33;;;12.18;;
31224;SDS011;17847;31.524;74.366;2023-03-05T15:46:36;29.08;;;11.90;;
31224;SDS011;17847;31.524;74.366;2023-03-05T15:49:25;25.40;;;11.80;;
31224;SDS011;17847;31.524;74.366;2023-03-05T15:52:08;25.70;;;12.10;;
31224;SDS011;17847;31.524;74.366;2023-03-05T15:54:58;28.23;;;13.07;;
31224;SDS011;17847;31.524;74.366;2023-03-05T15:57:42;30.55;;;12.35;;
31224;SDS011;17847;31.524;74.366;2023-03-05T16:00:34;26.02;;;11.82;;
31224;SDS011;17847;31.524;74.366;2023-03-05T16:03:18;31.30;;;13.68;;
31224;SDS011;17847;31.524;74.366;2023-03-05T16:06:07;22.50;;;11.75;;
31224;SDS011;17847;31.524;74.366;2023-03-05T16:09:08;28.02;;;12.77;;
31224;SDS011;17847;31.524;74.366;2023-03-05T16:11:51;29.42;;;12.95;;
31224;SDS011;17847;31.524;74.366;2023-03-05T16:14:39;33.30;;;13.02;;
31224;SDS011;17847;31.524;74.366;2023-03-05T16:17:24;30.33;;;12.40;;
31224;SDS011;17847;31.524;74.366;2023-03-05T16:20:12;36.97;;;14.00;;
31224;SDS011;17847;31.524;74.366;2023-03-05T16:22:57;30.63;;;14.27;;
31224;SDS011;17847;31.524;74.366;2023-03-05T16:25:45;37.97;;;15.23;;
31224;SDS011;17847;31.524;74.366;2023-03-05T16:28:28;27.45;;;13.73;;
31224;SDS011;17847;31.524;74.366;2023-03-05T16:31:16;45.17;;;15.70;;
31224;SDS011;17847;31.524;74.366;2023-03-05T16:34:01;38.95;;;17.40;;
31224;SDS011;17847;31.524;74.366;2023-03-05T16:36:50;39.92;;;16.48;;
31224;SDS011;17847;31.524;74.366;2023-03-05T16:39:33;35.08;;;16.48;;
31224;SDS011;17847;31.524;74.366;2023-03-05T16:42:22;33.20;;;17.33;;
31224;SDS011;17847;31.524;74.366;2023-03-05T16:45:05;36.88;;;16.52;;
31224;SDS011;17847;31.524;74.366;2023-03-05T16:47:54;38.40;;;16.00;;
31224;SDS011;17847;31.524;74.366;2023-03-05T16:50:37;34.85;;;15.70;;
31224;SDS011;17847;31.524;74.366;2023-03-05T16:53:25;32.67;;;16.02;;
31224;SDS011;17847;31.524;74.366;2023-03-05T16:56:08;39.95;;;16.48;;
31224;SDS011;17847;31.524;74.366;2023-03-05T16:58:57;31.02;;;15.70;;
31224;SDS011;17847;31.524;74.366;2023-03-05T17:01:40;34.45;;;16.25;;
31224;SDS011;17847;31.524;74.366;2023-03-05T17:04:29;22.48;;;14.07;;
31224;SDS011;17847;31.524;74.366;2023-03-05T17:07:19;31.63;;;14.50;;
31224;SDS011;17847;31.524;74.366;2023-03-05T17:10:15;30.80;;;14.80;;
31224;SDS011;17847;31.524;74.366;2023-03-05T17:12:59;38.70;;;14.27;;
31224;SDS011;17847;31.524;74.366;2023-03-05T17:15:54;30.67;;;15.18;;
31224;SDS011;17847;31.524;74.366;2023-03-05T17:18:38;30.88;;;15.02;;
31224;SDS011;17847;31.524;74.366;2023-03-05T17:21:28;30.45;;;14.48;;
31224;SDS011;17847;31.524;74.366;2023-03-05T17:24:14;37.58;;;15.85;;
31224;SDS011;17847;31.524;74.366;2023-03-05T17:29:47;33.15;;;14.05;;
31224;SDS011;17847;31.524;74.366;2023-03-05T17:35:20;50.05;;;15.82;;
31224;SDS011;17847;31.524;74.366;2023-03-05T17:38:11;43.47;;;16.33;;
31224;SDS011;17847;31.524;74.366;2023-03-05T17:40:55;43.38;;;16.23;;
31224;SDS011;17847;31.524;74.366;2023-03-05T17:43:52;37.30;;;15.60;;
31224;SDS011;17847;31.524;74.366;2023-03-05T17:46:36;38.53;;;15.90;;
31224;SDS011;17847;31.524;74.366;2023-03-05T17:49:25;45.90;;;16.07;;
31224;SDS011;17847;31.524;74.366;2023-03-05T17:52:08;35.17;;;16.00;;
31224;SDS011;17847;31.524;74.366;2023-03-05T17:54:58;38.72;;;17.20;;
31224;SDS011;17847;31.524;74.366;2023-03-05T17:57:46;35.90;;;16.86;;
31224;SDS011;17847;31.524;74.366;2023-03-05T18:00:35;37.10;;;16.40;;
31224;SDS011;17847;31.524;74.366;2023-03-05T18:03:19;38.78;;;17.10;;